sensor_id;sensor_type;location;lat;lon;timestamp;P1;durP1;ratioP1;P2;durP2;ratioP2
32964;SDS011;19317;48.226;11.686;2023-01-06T00:01:00;2.70;;;2.50;;
32964;SDS011;19317;48.226;11.686;2023-01-06T00:05:55;3.00;;;2.80;;
32964;SDS011;19317;48.226;11.686;2023-01-06T00:10:47;3.40;;;2.77;;
32964;SDS011;19317;48.226;11.686;2023-01-06T00:15:37;2.70;;;2.50;;
32964;SDS011;19317;48.226;11.686;2023-01-06T00:20:28;2.60;;;2.40;;
32964;SDS011;19317;48.226;11.686;2023-01-06T00:25:18;2.60;;;2.40;;
32964;SDS011;19317;48.226;11.686;2023-01-06T00:30:09;2.73;;;2.53;;
32964;SDS011;19317;48.226;11.686;2023-01-06T00:35:00;2.70;;;2.50;;
32964;SDS011;19317;48.226;11.686;2023-01-06T00:39:51;3.00;;;2.47;;
32964;SDS011;19317;48.226;11.686;2023-01-06T00:44:41;3.87;;;2.63;;
32964;SDS011;19317;48.226;11.686;2023-01-06T00:49:32;2.90;;;2.70;;
32964;SDS011;19317;48.226;11.686;2023-01-06T00:54:22;2.47;;;2.27;;
32964;SDS011;19317;48.226;11.686;2023-01-06T00:59:13;2.47;;;2.27;;
32964;SDS011;19317;48.226;11.686;2023-01-06T01:04:06;2.60;;;2.40;;
32964;SDS011;19317;48.226;11.686;2023-01-06T01:08:57;2.60;;;2.40;;
32964;SDS011;19317;48.226;11.686;2023-01-06T01:13:49;2.67;;;2.47;;
32964;SDS011;19317;48.226;11.686;2023-01-06T01:18:39;2.50;;;2.30;;
32964;SDS011;19317;48.226;11.686;2023-01-06T01:23:29;2.50;;;2.30;;
32964;SDS011;19317;48.226;11.686;2023-01-06T01:28:20;2.87;;;2.30;;
32964;SDS011;19317;48.226;11.686;2023-01-06T01:33:10;2.50;;;2.30;;
32964;SDS011;19317;48.226;11.686;2023-01-06T01:38:01;2.50;;;2.30;;
32964;SDS011;19317;48.226;11.686;2023-01-06T01:42:51;2.60;;;2.40;;
32964;SDS011;19317;48.226;11.686;2023-01-06T01:47:43;2.60;;;2.40;;
32964;SDS011;19317;48.226;11.686;2023-01-06T01:52:40;2.93;;;2.60;;
32964;SDS011;19317;48.226;11.686;2023-01-06T01:57:34;2.60;;;2.40;;
32964;SDS011;19317;48.226;11.686;2023-01-06T02:02:30;2.50;;;2.30;;
32964;SDS011;19317;48.226;11.686;2023-01-06T02:07:22;2.60;;;2.40;;
32964;SDS011;19317;48.226;11.686;2023-01-06T02:12:15;2.60;;;2.40;;
32964;SDS011;19317;48.226;11.686;2023-01-06T02:28:07;3.70;;;2.57;;
32964;SDS011;19317;48.226;11.686;2023-01-06T02:53:28;2.70;;;2.50;;
32964;SDS011;19317;48.226;11.686;2023-01-06T02:58:41;2.67;;;2.47;;
32964;SDS011;19317;48.226;11.686;2023-01-06T03:03:55;2.50;;;2.30;;
32964;SDS011;19317;48.226;11.686;2023-01-06T03:08:50;2.33;;;2.13;;
32964;SDS011;19317;48.226;11.686;2023-01-06T03:13:45;2.40;;;2.20;;
32964;SDS011;19317;48.226;11.686;2023-01-06T03:18:45;2.53;;;2.33;;
32964;SDS011;19317;48.226;11.686;2023-01-06T03:23:38;2.37;;;2.20;;
32964;SDS011;19317;48.226;11.686;2023-01-06T03:28:30;2.30;;;2.10;;
32964;SDS011;19317;48.226;11.686;2023-01-06T03:33:35;2.37;;;2.17;;
32964;SDS011;19317;48.226;11.686;2023-01-06T03:38:40;2.03;;;1.93;;
32964;SDS011;19317;48.226;11.686;2023-01-06T03:43:43;2.03;;;1.93;;
32964;SDS011;19317;48.226;11.686;2023-01-06T03:48:53;2.07;;;1.97;;
32964;SDS011;19317;48.226;11.686;2023-01-06T03:58:51;2.10;;;2.00;;
32964;SDS011;19317;48.226;11.686;2023-01-06T04:03:45;2.00;;;1.90;;
32964;SDS011;19317;48.226;11.686;2023-01-06T04:08:36;2.00;;;1.80;;
32964;SDS011;19317;48.226;11.686;2023-01-06T04:13:27;2.00;;;1.90;;
32964;SDS011;19317;48.226;11.686;2023-01-06T04:18:17;1.80;;;1.70;;
32964;SDS011;19317;48.226;11.686;2023-01-06T04:23:08;2.17;;;2.07;;
32964;SDS011;19317;48.226;11.686;2023-01-06T04:27:58;2.10;;;2.00;;
32964;SDS011;19317;48.226;11.686;2023-01-06T04:32:49;2.13;;;2.03;;
32964;SDS011;19317;48.226;11.686;2023-01-06T04:37:39;2.10;;;2.00;;
32964;SDS011;19317;48.226;11.686;2023-01-06T04:42:29;2.40;;;2.20;;
32964;SDS011;19317;48.226;11.686;2023-01-06T04:47:20;2.57;;;2.37;;
32964;SDS011;19317;48.226;11.686;2023-01-06T04:52:10;2.03;;;1.93;;
32964;SDS011;19317;48.226;11.686;2023-01-06T04:57:01;2.10;;;2.00;;
32964;SDS011;19317;48.226;11.686;2023-01-06T05:01:51;2.20;;;2.10;;
32964;SDS011;19317;48.226;11.686;2023-01-06T05:06:42;2.33;;;2.13;;
32964;SDS011;19317;48.226;11.686;2023-01-06T05:11:32;2.33;;;2.10;;
32964;SDS011;19317;48.226;11.686;2023-01-06T05:16:24;1.90;;;1.80;;
32964;SDS011;19317;48.226;11.686;2023-01-06T05:21:19;2.30;;;2.20;;
32964;SDS011;19317;48.226;11.686;2023-01-06T05:26:15;2.43;;;2.23;;
32964;SDS011;19317;48.226;11.686;2023-01-06T05:31:07;4.43;;;3.57;;
32964;SDS011;19317;48.226;11.686;2023-01-06T05:36:00;2.40;;;2.20;;
32964;SDS011;19317;48.226;11.686;2023-01-06T05:40:52;2.00;;;1.90;;
32964;SDS011;19317;48.226;11.686;2023-01-06T05:45:43;2.00;;;1.90;;
32964;SDS011;19317;48.226;11.686;2023-01-06T05:50:33;2.10;;;2.00;;
32964;SDS011;19317;48.226;11.686;2023-01-06T05:55:24;2.00;;;1.90;;
32964;SDS011;19317;48.226;11.686;2023-01-06T06:00:14;2.00;;;1.90;;
32964;SDS011;19317;48.226;11.686;2023-01-06T06:05:05;1.90;;;1.80;;
32964;SDS011;19317;48.226;11.686;2023-01-06T06:09:56;2.10;;;2.00;;
32964;SDS011;19317;48.226;11.686;2023-01-06T06:14:46;1.93;;;1.83;;
32964;SDS011;19317;48.226;11.686;2023-01-06T06:19:36;2.20;;;2.10;;
32964;SDS011;19317;48.226;11.686;2023-01-06T06:24:27;2.10;;;2.00;;
32964;SDS011;19317;48.226;11.686;2023-01-06T06:29:17;1.90;;;1.80;;
32964;SDS011;19317;48.226;11.686;2023-01-06T06:34:09;2.17;;;2.07;;
32964;SDS011;19317;48.226;11.686;2023-01-06T06:39:01;2.20;;;2.10;;
32964;SDS011;19317;48.226;11.686;2023-01-06T06:43:52;2.47;;;2.27;;
32964;SDS011;19317;48.226;11.686;2023-01-06T06:48:42;2.17;;;2.03;;
32964;SDS011;19317;48.226;11.686;2023-01-06T06:53:33;2.57;;;2.40;;
32964;SDS011;19317;48.226;11.686;2023-01-06T06:58:24;2.13;;;1.93;;
32964;SDS011;19317;48.226;11.686;2023-01-06T07:03:15;2.20;;;2.00;;
32964;SDS011;19317;48.226;11.686;2023-01-06T07:08:06;1.87;;;1.77;;
32964;SDS011;19317;48.226;11.686;2023-01-06T07:12:56;1.93;;;1.83;;
32964;SDS011;19317;48.226;11.686;2023-01-06T07:17:46;2.00;;;1.90;;
32964;SDS011;19317;48.226;11.686;2023-01-06T07:22:37;2.07;;;1.97;;
32964;SDS011;19317;48.226;11.686;2023-01-06T07:27:29;2.20;;;2.10;;
32964;SDS011;19317;48.226;11.686;2023-01-06T07:32:19;1.90;;;1.70;;
32964;SDS011;19317;48.226;11.686;2023-01-06T07:37:09;1.93;;;1.80;;
32964;SDS011;19317;48.226;11.686;2023-01-06T07:42:00;2.67;;;2.10;;
32964;SDS011;19317;48.226;11.686;2023-01-06T07:46:50;2.50;;;2.07;;
32964;SDS011;19317;48.226;11.686;2023-01-06T07:51:41;2.00;;;1.90;;
32964;SDS011;19317;48.226;11.686;2023-01-06T07:56:31;2.10;;;2.00;;
32964;SDS011;19317;48.226;11.686;2023-01-06T08:01:22;1.90;;;1.80;;
32964;SDS011;19317;48.226;11.686;2023-01-06T08:06:12;2.10;;;2.00;;
32964;SDS011;19317;48.226;11.686;2023-01-06T08:11:03;2.10;;;2.00;;
32964;SDS011;19317;48.226;11.686;2023-01-06T08:15:56;2.30;;;2.20;;
32964;SDS011;19317;48.226;11.686;2023-01-06T08:20:46;2.03;;;1.90;;
32964;SDS011;19317;48.226;11.686;2023-01-06T08:25:37;2.13;;;2.00;;
32964;SDS011;19317;48.226;11.686;2023-01-06T08:30:27;2.50;;;2.30;;
32964;SDS011;19317;48.226;11.686;2023-01-06T08:35:18;2.50;;;2.30;;
32964;SDS011;19317;48.226;11.686;2023-01-06T08:40:09;2.00;;;1.80;;
32964;SDS011;19317;48.226;11.686;2023-01-06T08:44:59;1.93;;;1.83;;
32964;SDS011;19317;48.226;11.686;2023-01-06T08:49:50;2.13;;;1.87;;
32964;SDS011;19317;48.226;11.686;2023-01-06T08:54:40;2.10;;;2.00;;
32964;SDS011;19317;48.226;11.686;2023-01-06T08:59:31;3.13;;;2.57;;
32964;SDS011;19317;48.226;11.686;2023-01-06T09:04:21;2.50;;;2.30;;
32964;SDS011;19317;48.226;11.686;2023-01-06T09:09:12;2.40;;;2.20;;
32964;SDS011;19317;48.226;11.686;2023-01-06T09:14:02;2.40;;;2.20;;
32964;SDS011;19317;48.226;11.686;2023-01-06T09:18:53;2.20;;;2.00;;
32964;SDS011;19317;48.226;11.686;2023-01-06T09:23:43;2.40;;;2.20;;
32964;SDS011;19317;48.226;11.686;2023-01-06T09:28:34;3.27;;;2.10;;
32964;SDS011;19317;48.226;11.686;2023-01-06T09:33:24;2.13;;;2.03;;
32964;SDS011;19317;48.226;11.686;2023-01-06T09:38:15;2.60;;;2.23;;
32964;SDS011;19317;48.226;11.686;2023-01-06T09:48:15;2.87;;;2.07;;
32964;SDS011;19317;48.226;11.686;2023-01-06T09:58:11;1.87;;;1.77;;
32964;SDS011;19317;48.226;11.686;2023-01-06T10:03:04;1.80;;;1.70;;
32964;SDS011;19317;48.226;11.686;2023-01-06T10:08:04;1.80;;;1.70;;
32964;SDS011;19317;48.226;11.686;2023-01-06T10:23:12;1.90;;;1.80;;
32964;SDS011;19317;48.226;11.686;2023-01-06T10:33:22;1.80;;;1.70;;
32964;SDS011;19317;48.226;11.686;2023-01-06T10:38:13;2.10;;;2.00;;
32964;SDS011;19317;48.226;11.686;2023-01-06T10:43:06;2.03;;;1.93;;
32964;SDS011;19317;48.226;11.686;2023-01-06T10:48:00;1.77;;;1.67;;
32964;SDS011;19317;48.226;11.686;2023-01-06T10:52:52;2.50;;;2.30;;
32964;SDS011;19317;48.226;11.686;2023-01-06T10:57:43;2.30;;;2.10;;
32964;SDS011;19317;48.226;11.686;2023-01-06T11:02:34;2.17;;;1.97;;
32964;SDS011;19317;48.226;11.686;2023-01-06T11:07:24;3.60;;;2.17;;
32964;SDS011;19317;48.226;11.686;2023-01-06T11:12:16;1.90;;;1.80;;
32964;SDS011;19317;48.226;11.686;2023-01-06T11:17:11;2.43;;;2.23;;
32964;SDS011;19317;48.226;11.686;2023-01-06T11:22:04;2.03;;;1.90;;
32964;SDS011;19317;48.226;11.686;2023-01-06T11:27:15;2.40;;;2.17;;
32964;SDS011;19317;48.226;11.686;2023-01-06T11:37:02;2.23;;;2.07;;
32964;SDS011;19317;48.226;11.686;2023-01-06T11:41:54;2.10;;;2.00;;
32964;SDS011;19317;48.226;11.686;2023-01-06T11:46:47;2.70;;;2.50;;
32964;SDS011;19317;48.226;11.686;2023-01-06T11:56:31;2.50;;;2.30;;
32964;SDS011;19317;48.226;11.686;2023-01-06T12:06:40;2.63;;;2.43;;
32964;SDS011;19317;48.226;11.686;2023-01-06T12:11:43;3.40;;;3.10;;
32964;SDS011;19317;48.226;11.686;2023-01-06T12:22:02;3.43;;;3.13;;
32964;SDS011;19317;48.226;11.686;2023-01-06T12:26:54;3.60;;;3.30;;
32964;SDS011;19317;48.226;11.686;2023-01-06T12:42:28;2.87;;;2.67;;
32964;SDS011;19317;48.226;11.686;2023-01-06T12:52:36;2.90;;;2.53;;
32964;SDS011;19317;48.226;11.686;2023-01-06T13:23:20;2.33;;;2.13;;
32964;SDS011;19317;48.226;11.686;2023-01-06T13:28:32;1.90;;;1.80;;
32964;SDS011;19317;48.226;11.686;2023-01-06T13:38:59;2.13;;;2.00;;
32964;SDS011;19317;48.226;11.686;2023-01-06T13:43:56;1.70;;;1.60;;
32964;SDS011;19317;48.226;11.686;2023-01-06T13:48:49;1.90;;;1.80;;
32964;SDS011;19317;48.226;11.686;2023-01-06T13:53:48;2.10;;;2.00;;
32964;SDS011;19317;48.226;11.686;2023-01-06T13:58:39;1.87;;;1.77;;
32964;SDS011;19317;48.226;11.686;2023-01-06T14:03:32;2.07;;;1.90;;
32964;SDS011;19317;48.226;11.686;2023-01-06T14:08:23;1.80;;;1.70;;
32964;SDS011;19317;48.226;11.686;2023-01-06T14:13:17;2.20;;;2.00;;
32964;SDS011;19317;48.226;11.686;2023-01-06T14:18:26;2.17;;;1.90;;
32964;SDS011;19317;48.226;11.686;2023-01-06T14:23:24;2.20;;;2.00;;
32964;SDS011;19317;48.226;11.686;2023-01-06T14:33:24;2.13;;;2.03;;
32964;SDS011;19317;48.226;11.686;2023-01-06T14:38:26;2.00;;;1.90;;
32964;SDS011;19317;48.226;11.686;2023-01-06T14:43:33;2.20;;;2.07;;
32964;SDS011;19317;48.226;11.686;2023-01-06T14:48:36;2.20;;;2.10;;
32964;SDS011;19317;48.226;11.686;2023-01-06T14:53:35;2.07;;;1.97;;
32964;SDS011;19317;48.226;11.686;2023-01-06T15:03:22;2.30;;;2.10;;
32964;SDS011;19317;48.226;11.686;2023-01-06T15:08:14;2.27;;;2.07;;
32964;SDS011;19317;48.226;11.686;2023-01-06T15:13:20;2.63;;;2.00;;
32964;SDS011;19317;48.226;11.686;2023-01-06T15:18:13;1.90;;;1.80;;
32964;SDS011;19317;48.226;11.686;2023-01-06T15:23:04;2.20;;;2.00;;
32964;SDS011;19317;48.226;11.686;2023-01-06T15:27:55;2.53;;;2.30;;
32964;SDS011;19317;48.226;11.686;2023-01-06T15:32:46;2.50;;;2.30;;
32964;SDS011;19317;48.226;11.686;2023-01-06T15:37:38;2.20;;;2.10;;
32964;SDS011;19317;48.226;11.686;2023-01-06T15:42:29;2.50;;;2.10;;
32964;SDS011;19317;48.226;11.686;2023-01-06T15:47:25;2.07;;;1.97;;
32964;SDS011;19317;48.226;11.686;2023-01-06T15:52:24;1.97;;;1.80;;
32964;SDS011;19317;48.226;11.686;2023-01-06T15:57:16;2.03;;;1.93;;
32964;SDS011;19317;48.226;11.686;2023-01-06T16:02:15;1.93;;;1.83;;
32964;SDS011;19317;48.226;11.686;2023-01-06T16:07:19;2.50;;;2.30;;
32964;SDS011;19317;48.226;11.686;2023-01-06T16:12:15;2.10;;;2.00;;
32964;SDS011;19317;48.226;11.686;2023-01-06T16:17:13;2.27;;;2.17;;
32964;SDS011;19317;48.226;11.686;2023-01-06T16:22:24;2.10;;;2.00;;
32964;SDS011;19317;48.226;11.686;2023-01-06T16:27:14;2.13;;;2.03;;
32964;SDS011;19317;48.226;11.686;2023-01-06T16:32:19;2.33;;;2.13;;
32964;SDS011;19317;48.226;11.686;2023-01-06T16:37:15;2.10;;;2.00;;
32964;SDS011;19317;48.226;11.686;2023-01-06T16:42:17;2.23;;;2.03;;
32964;SDS011;19317;48.226;11.686;2023-01-06T16:47:09;2.37;;;2.17;;
32964;SDS011;19317;48.226;11.686;2023-01-06T16:52:00;4.10;;;2.40;;
32964;SDS011;19317;48.226;11.686;2023-01-06T16:56:50;4.93;;;3.20;;
32964;SDS011;19317;48.226;11.686;2023-01-06T17:01:41;5.10;;;2.93;;
32964;SDS011;19317;48.226;11.686;2023-01-06T17:06:33;2.53;;;2.33;;
32964;SDS011;19317;48.226;11.686;2023-01-06T17:11:25;2.17;;;1.97;;
32964;SDS011;19317;48.226;11.686;2023-01-06T17:16:18;2.30;;;2.10;;
32964;SDS011;19317;48.226;11.686;2023-01-06T17:26:07;2.50;;;2.30;;
32964;SDS011;19317;48.226;11.686;2023-01-06T17:31:02;2.47;;;2.27;;
32964;SDS011;19317;48.226;11.686;2023-01-06T17:36:02;2.70;;;2.50;;
32964;SDS011;19317;48.226;11.686;2023-01-06T17:40:52;2.43;;;2.23;;
32964;SDS011;19317;48.226;11.686;2023-01-06T17:45:43;2.60;;;2.40;;
32964;SDS011;19317;48.226;11.686;2023-01-06T17:50:33;2.77;;;2.57;;
32964;SDS011;19317;48.226;11.686;2023-01-06T18:00:22;2.90;;;2.70;;
32964;SDS011;19317;48.226;11.686;2023-01-06T18:10:12;3.20;;;2.93;;
32964;SDS011;19317;48.226;11.686;2023-01-06T18:15:21;3.50;;;3.20;;
32964;SDS011;19317;48.226;11.686;2023-01-06T18:20:15;2.97;;;2.77;;
32964;SDS011;19317;48.226;11.686;2023-01-06T18:25:06;2.63;;;2.43;;
32964;SDS011;19317;48.226;11.686;2023-01-06T18:30:20;2.90;;;2.70;;
32964;SDS011;19317;48.226;11.686;2023-01-06T18:35:17;3.40;;;2.70;;
32964;SDS011;19317;48.226;11.686;2023-01-06T18:40:17;2.67;;;2.47;;
32964;SDS011;19317;48.226;11.686;2023-01-06T18:50:23;3.00;;;2.80;;
32964;SDS011;19317;48.226;11.686;2023-01-06T18:55:18;2.83;;;2.63;;
32964;SDS011;19317;48.226;11.686;2023-01-06T19:00:29;3.00;;;2.80;;
32964;SDS011;19317;48.226;11.686;2023-01-06T19:05:20;2.80;;;2.60;;
32964;SDS011;19317;48.226;11.686;2023-01-06T19:10:22;2.93;;;2.73;;
32964;SDS011;19317;48.226;11.686;2023-01-06T19:15:21;3.20;;;2.90;;
32964;SDS011;19317;48.226;11.686;2023-01-06T19:20:16;3.60;;;3.30;;
32964;SDS011;19317;48.226;11.686;2023-01-06T19:25:33;3.40;;;3.10;;
32964;SDS011;19317;48.226;11.686;2023-01-06T19:30:33;3.63;;;3.03;;
32964;SDS011;19317;48.226;11.686;2023-01-06T19:35:28;3.07;;;2.80;;
32964;SDS011;19317;48.226;11.686;2023-01-06T19:40:22;2.70;;;2.50;;
32964;SDS011;19317;48.226;11.686;2023-01-06T19:45:23;3.00;;;2.70;;
32964;SDS011;19317;48.226;11.686;2023-01-06T19:50:18;3.17;;;2.90;;
32964;SDS011;19317;48.226;11.686;2023-01-06T19:55:28;3.00;;;2.80;;
32964;SDS011;19317;48.226;11.686;2023-01-06T20:00:25;3.30;;;3.00;;
32964;SDS011;19317;48.226;11.686;2023-01-06T20:05:16;3.30;;;3.00;;
32964;SDS011;19317;48.226;11.686;2023-01-06T20:10:07;2.80;;;2.60;;
32964;SDS011;19317;48.226;11.686;2023-01-06T20:14:58;3.43;;;3.13;;
32964;SDS011;19317;48.226;11.686;2023-01-06T20:19:48;3.30;;;3.00;;
32964;SDS011;19317;48.226;11.686;2023-01-06T20:24:38;3.50;;;3.20;;
32964;SDS011;19317;48.226;11.686;2023-01-06T20:29:29;3.40;;;3.10;;
32964;SDS011;19317;48.226;11.686;2023-01-06T20:34:19;3.43;;;3.13;;
32964;SDS011;19317;48.226;11.686;2023-01-06T20:39:10;3.67;;;3.37;;
32964;SDS011;19317;48.226;11.686;2023-01-06T20:44:00;3.80;;;3.47;;
32964;SDS011;19317;48.226;11.686;2023-01-06T20:48:51;3.43;;;3.20;;
32964;SDS011;19317;48.226;11.686;2023-01-06T20:53:41;3.63;;;3.17;;
32964;SDS011;19317;48.226;11.686;2023-01-06T20:58:32;3.57;;;3.20;;
32964;SDS011;19317;48.226;11.686;2023-01-06T21:03:22;3.40;;;3.10;;
32964;SDS011;19317;48.226;11.686;2023-01-06T21:08:13;3.20;;;2.90;;
32964;SDS011;19317;48.226;11.686;2023-01-06T21:13:03;2.87;;;2.67;;
32964;SDS011;19317;48.226;11.686;2023-01-06T21:17:54;3.10;;;2.90;;
32964;SDS011;19317;48.226;11.686;2023-01-06T21:22:44;2.90;;;2.70;;
32964;SDS011;19317;48.226;11.686;2023-01-06T21:27:35;3.27;;;2.80;;
32964;SDS011;19317;48.226;11.686;2023-01-06T21:32:25;3.07;;;2.87;;
32964;SDS011;19317;48.226;11.686;2023-01-06T21:37:16;3.37;;;2.90;;
32964;SDS011;19317;48.226;11.686;2023-01-06T21:42:06;2.90;;;2.70;;
32964;SDS011;19317;48.226;11.686;2023-01-06T21:46:56;3.70;;;3.23;;
32964;SDS011;19317;48.226;11.686;2023-01-06T21:51:47;2.97;;;2.77;;
32964;SDS011;19317;48.226;11.686;2023-01-06T21:56:37;3.17;;;2.87;;
32964;SDS011;19317;48.226;11.686;2023-01-06T22:01:28;4.87;;;4.30;;
32964;SDS011;19317;48.226;11.686;2023-01-06T22:06:18;3.60;;;3.30;;
32964;SDS011;19317;48.226;11.686;2023-01-06T22:11:10;3.30;;;3.00;;
32964;SDS011;19317;48.226;11.686;2023-01-06T22:16:01;4.17;;;3.77;;
32964;SDS011;19317;48.226;11.686;2023-01-06T22:20:51;3.43;;;3.03;;
32964;SDS011;19317;48.226;11.686;2023-01-06T22:25:42;9.33;;;6.10;;
32964;SDS011;19317;48.226;11.686;2023-01-06T22:30:32;3.40;;;3.10;;
32964;SDS011;19317;48.226;11.686;2023-01-06T22:35:23;3.63;;;3.33;;
32964;SDS011;19317;48.226;11.686;2023-01-06T22:40:13;3.47;;;3.17;;
32964;SDS011;19317;48.226;11.686;2023-01-06T22:45:04;3.23;;;3.00;;
32964;SDS011;19317;48.226;11.686;2023-01-06T22:49:55;3.60;;;3.30;;
32964;SDS011;19317;48.226;11.686;2023-01-06T22:54:46;3.30;;;3.00;;
32964;SDS011;19317;48.226;11.686;2023-01-06T22:59:36;3.20;;;2.90;;
32964;SDS011;19317;48.226;11.686;2023-01-06T23:04:26;3.43;;;3.03;;
32964;SDS011;19317;48.226;11.686;2023-01-06T23:09:17;3.77;;;3.47;;
32964;SDS011;19317;48.226;11.686;2023-01-06T23:14:08;3.47;;;3.13;;
32964;SDS011;19317;48.226;11.686;2023-01-06T23:19:00;3.90;;;3.30;;
32964;SDS011;19317;48.226;11.686;2023-01-06T23:23:51;3.33;;;3.03;;
32964;SDS011;19317;48.226;11.686;2023-01-06T23:28:42;3.40;;;3.10;;
32964;SDS011;19317;48.226;11.686;2023-01-06T23:33:36;3.43;;;3.13;;
32964;SDS011;19317;48.226;11.686;2023-01-06T23:38:31;3.40;;;3.10;;
32964;SDS011;19317;48.226;11.686;2023-01-06T23:43:22;3.60;;;3.30;;
32964;SDS011;19317;48.226;11.686;2023-01-06T23:48:12;3.53;;;3.23;;
32964;SDS011;19317;48.226;11.686;2023-01-06T23:53:03;3.63;;;3.33;;
32964;SDS011;19317;48.226;11.686;2023-01-06T23:57:53;3.30;;;3.00;;
